West Fargo, ND

9:16 AM CDT on July 01, 2015 (GMT -0500)
Charleswood Estates | | Change Station
CLOSE
Current Station
Personal Weather Station
Location: West Fargo, ND
Elevation: 899 ft
Nearby Weather Stations

Elev 899 ft 46.86 °N, 96.90 °W | Updated 3 minutes ago

Partly Cloudy
Partly Cloudy
72.9 °F
Feels Like 74 °F
N
3.2
Wind Variable Wind from South

Today
High -- | Low -- °F
--% Chance of Precip.
Yesterday
High -- | Low -- °F
Precip. -- in
5:36 AM 9:25 PM
Full, 100% visible
Pressure 29.94 in
Visibility 10.0 miles
Clouds Clear
Heat Index 74 °F
Dew Point 65 °F
Humidity 77%
Rainfall 0.00 in
Snow Depth Not available.
UV 3 out of 12
Pollen .60 out of 12
Air Quality Not available.
Flu Activity Not available.
METAR KFAR 011353Z AUTO 17008KT 10SM CLR 21/17 A2995 RMK AO2 SLP139 T02060167 TSNO

More Conditions Fewer Conditions

Pressure 29.94 in
Visibility 10.0 miles
Clouds Clear
Heat Index 74 °F
Dew Point 65 °F
Humidity 77%
Rainfall 0.00 in
Snow Depth Not available.
UV 3 out of 12
Pollen .60 out of 12
Air Quality Not available.
Flu Activity Not available.
METAR KFAR 011353Z AUTO 17008KT 10SM CLR 21/17 A2995 RMK AO2 SLP139 T02060167 TSNO

More Conditions Fewer Conditions

10-Day Weather Forecast

×

Almanac

Astronomy

Jul. 01, 2015 Rise Set
Actual Time
Civil Twilight
Nautical Twilight
Astronomical Twilight
Moon
Length of Visible Light
Length of Day
Tomorrow will be .
, % of the Moon is Illuminated

Today's Extremes

State Highs State Lows

Community

WunderPhotos

Upload Photos

1,834,202 photos uploaded!

WunderBlogs® & News

Nearby

Air Quality

  Air Quality AQ Index Pollutant
Not available.

Snow Depth

Station Depth Elevation

Earthquake Activity

City Distance Mag. Time & Date
Minimum magnitude displayed is 2.5.

Coastal Water Temperatures

Place Temperature

Stations

Nearby Weather Stations

Station Location Temp. Windchill Dew Point Humidity Wind Precip. Elev Updated Type